sensor_id;sensor_type;location;lat;lon;timestamp;pressure;altitude;pressure_sealevel;temperature;humidity
40285;BME280;25997;50.214;19.354;2023-07-13T00:01:05;97519.75;;;19.32;61.84
40285;BME280;25997;50.214;19.354;2023-07-13T00:04:08;97538.50;;;19.24;62.06
40285;BME280;25997;50.214;19.354;2023-07-13T00:07:11;97552.41;;;18.88;66.13
40285;BME280;25997;50.214;19.354;2023-07-13T00:10:17;97545.63;;;18.63;67.80
40285;BME280;25997;50.214;19.354;2023-07-13T00:13:19;97551.72;;;18.74;67.18
40285;BME280;25997;50.214;19.354;2023-07-13T00:16:22;97536.53;;;18.81;65.59
40285;BME280;25997;50.214;19.354;2023-07-13T00:19:24;97549.84;;;18.82;65.32
40285;BME280;25997;50.214;19.354;2023-07-13T00:22:27;97546.53;;;18.63;66.29
40285;BME280;25997;50.214;19.354;2023-07-13T00:25:31;97553.66;;;18.60;67.14
40285;BME280;25997;50.214;19.354;2023-07-13T00:28:33;97538.66;;;18.57;66.85
40285;BME280;25997;50.214;19.354;2023-07-13T00:31:36;97529.66;;;18.64;66.01
40285;BME280;25997;50.214;19.354;2023-07-13T00:34:40;97518.63;;;18.92;64.62
40285;BME280;25997;50.214;19.354;2023-07-13T00:37:43;97514.88;;;19.06;63.83
40285;BME280;25997;50.214;19.354;2023-07-13T00:40:46;97532.44;;;19.16;63.28
40285;BME280;25997;50.214;19.354;2023-07-13T00:43:49;97539.53;;;19.16;63.38
40285;BME280;25997;50.214;19.354;2023-07-13T00:46:51;97540.44;;;19.16;63.48
40285;BME280;25997;50.214;19.354;2023-07-13T00:49:54;97521.69;;;19.22;63.21
40285;BME280;25997;50.214;19.354;2023-07-13T00:52:56;97488.66;;;19.34;62.80
40285;BME280;25997;50.214;19.354;2023-07-13T00:56:01;97469.78;;;19.48;62.50
40285;BME280;25997;50.214;19.354;2023-07-13T00:59:05;97466.88;;;19.61;62.13
40285;BME280;25997;50.214;19.354;2023-07-13T01:02:09;97457.72;;;19.74;62.00
40285;BME280;25997;50.214;19.354;2023-07-13T01:05:13;97440.75;;;19.80;61.36
40285;BME280;25997;50.214;19.354;2023-07-13T01:08:16;97428.38;;;19.77;61.70
40285;BME280;25997;50.214;19.354;2023-07-13T01:11:21;97436.31;;;19.79;61.86
40285;BME280;25997;50.214;19.354;2023-07-13T01:14:24;97427.44;;;19.78;61.99
40285;BME280;25997;50.214;19.354;2023-07-13T01:17:27;97439.84;;;19.81;61.81
40285;BME280;25997;50.214;19.354;2023-07-13T01:20:30;97432.81;;;19.77;62.18
40285;BME280;25997;50.214;19.354;2023-07-13T01:23:38;97431.78;;;19.84;61.99
40285;BME280;25997;50.214;19.354;2023-07-13T01:26:40;97431.75;;;19.85;62.03
40285;BME280;25997;50.214;19.354;2023-07-13T01:29:44;97438.84;;;19.85;61.97
40285;BME280;25997;50.214;19.354;2023-07-13T01:32:48;97436.38;;;19.77;62.24
40285;BME280;25997;50.214;19.354;2023-07-13T01:35:50;97440.94;;;19.71;62.43
40285;BME280;25997;50.214;19.354;2023-07-13T01:38:54;97439.22;;;19.67;62.85
40285;BME280;25997;50.214;19.354;2023-07-13T01:41:57;97450.72;;;19.70;62.76
40285;BME280;25997;50.214;19.354;2023-07-13T01:45:00;97448.75;;;19.78;62.98
40285;BME280;25997;50.214;19.354;2023-07-13T01:48:05;97464.56;;;19.87;62.89
40285;BME280;25997;50.214;19.354;2023-07-13T01:51:08;97451.97;;;19.95;62.71
40285;BME280;25997;50.214;19.354;2023-07-13T01:54:12;97434.97;;;20.02;62.60
40285;BME280;25997;50.214;19.354;2023-07-13T01:57:15;97425.97;;;20.08;62.23
40285;BME280;25997;50.214;19.354;2023-07-13T02:00:18;97439.41;;;20.02;62.17
40285;BME280;25997;50.214;19.354;2023-07-13T02:03:24;97468.63;;;19.62;63.45
40285;BME280;25997;50.214;19.354;2023-07-13T02:06:26;97458.56;;;19.29;63.95
40285;BME280;25997;50.214;19.354;2023-07-13T02:09:30;97452.84;;;19.01;64.79
40285;BME280;25997;50.214;19.354;2023-07-13T02:12:33;97456.56;;;18.91;65.33
40285;BME280;25997;50.214;19.354;2023-07-13T02:15:38;97477.91;;;18.87;65.10
40285;BME280;25997;50.214;19.354;2023-07-13T02:18:41;97471.88;;;18.76;65.58
40285;BME280;25997;50.214;19.354;2023-07-13T02:21:44;97472.97;;;18.61;66.12
40285;BME280;25997;50.214;19.354;2023-07-13T02:24:48;97460.63;;;18.57;65.56
40285;BME280;25997;50.214;19.354;2023-07-13T02:27:53;97456.34;;;18.48;65.40
40285;BME280;25997;50.214;19.354;2023-07-13T02:30:55;97471.69;;;18.27;66.40
40285;BME280;25997;50.214;19.354;2023-07-13T02:33:58;97481.69;;;18.08;67.46
40285;BME280;25997;50.214;19.354;2023-07-13T02:37:00;97483.56;;;18.02;67.46
40285;BME280;25997;50.214;19.354;2023-07-13T02:40:05;97472.00;;;18.03;67.15
40285;BME280;25997;50.214;19.354;2023-07-13T02:43:10;97452.63;;;17.96;67.06
40285;BME280;25997;50.214;19.354;2023-07-13T02:46:13;97441.97;;;17.99;66.76
40285;BME280;25997;50.214;19.354;2023-07-13T02:49:15;97441.91;;;18.04;66.04
40285;BME280;25997;50.214;19.354;2023-07-13T02:52:18;97420.69;;;18.02;66.22
40285;BME280;25997;50.214;19.354;2023-07-13T02:55:22;97415.34;;;18.01;65.99
40285;BME280;25997;50.214;19.354;2023-07-13T02:58:24;97394.91;;;18.09;65.70
40285;BME280;25997;50.214;19.354;2023-07-13T03:01:27;97401.00;;;18.15;65.52
40285;BME280;25997;50.214;19.354;2023-07-13T03:04:30;97408.91;;;18.18;65.34
40285;BME280;25997;50.214;19.354;2023-07-13T03:07:33;97409.75;;;18.22;65.34
40285;BME280;25997;50.214;19.354;2023-07-13T03:10:37;97411.50;;;18.23;65.37
40285;BME280;25997;50.214;19.354;2023-07-13T03:13:43;97415.94;;;18.22;65.24
40285;BME280;25997;50.214;19.354;2023-07-13T03:16:46;97418.56;;;18.25;65.30
40285;BME280;25997;50.214;19.354;2023-07-13T03:19:49;97416.72;;;18.30;65.38
40285;BME280;25997;50.214;19.354;2023-07-13T03:22:53;97419.25;;;18.38;65.28
40285;BME280;25997;50.214;19.354;2023-07-13T03:26:06;97429.78;;;18.45;65.37
40285;BME280;25997;50.214;19.354;2023-07-13T03:29:09;97436.75;;;18.52;65.12
40285;BME280;25997;50.214;19.354;2023-07-13T03:32:12;97445.50;;;18.62;65.12
40285;BME280;25997;50.214;19.354;2023-07-13T03:35:14;97449.81;;;18.69;65.05
40285;BME280;25997;50.214;19.354;2023-07-13T03:38:17;97441.72;;;18.77;65.10
40285;BME280;25997;50.214;19.354;2023-07-13T03:41:21;97447.66;;;18.94;65.11
40285;BME280;25997;50.214;19.354;2023-07-13T03:44:26;97443.72;;;19.16;64.72
40285;BME280;25997;50.214;19.354;2023-07-13T03:47:30;97457.41;;;19.47;64.20
40285;BME280;25997;50.214;19.354;2023-07-13T03:50:35;97466.97;;;19.57;64.18
40285;BME280;25997;50.214;19.354;2023-07-13T03:53:39;97474.91;;;19.60;64.52
40285;BME280;25997;50.214;19.354;2023-07-13T03:56:44;97477.31;;;19.73;64.37
40285;BME280;25997;50.214;19.354;2023-07-13T03:59:47;97482.38;;;19.85;63.95
40285;BME280;25997;50.214;19.354;2023-07-13T04:02:49;97479.00;;;19.76;63.68
40285;BME280;25997;50.214;19.354;2023-07-13T04:05:52;97486.31;;;19.66;63.77
40285;BME280;25997;50.214;19.354;2023-07-13T04:08:56;97493.47;;;19.63;63.91
40285;BME280;25997;50.214;19.354;2023-07-13T04:12:01;97500.69;;;19.56;63.91
40285;BME280;25997;50.214;19.354;2023-07-13T04:15:04;97502.47;;;19.56;63.90
40285;BME280;25997;50.214;19.354;2023-07-13T04:18:06;97509.53;;;19.60;63.96
40285;BME280;25997;50.214;19.354;2023-07-13T04:21:10;97521.88;;;19.64;63.76
40285;BME280;25997;50.214;19.354;2023-07-13T04:24:12;97514.75;;;19.66;63.94
40285;BME280;25997;50.214;19.354;2023-07-13T04:27:16;97526.19;;;19.71;63.86
40285;BME280;25997;50.214;19.354;2023-07-13T04:30:18;97530.69;;;19.67;63.81
40285;BME280;25997;50.214;19.354;2023-07-13T04:33:21;97538.59;;;19.73;63.89
40285;BME280;25997;50.214;19.354;2023-07-13T04:36:24;97536.59;;;19.84;63.80
40285;BME280;25997;50.214;19.354;2023-07-13T04:39:28;97524.66;;;20.05;63.26
40285;BME280;25997;50.214;19.354;2023-07-13T04:42:32;97518.25;;;20.15;63.19
40285;BME280;25997;50.214;19.354;2023-07-13T04:45:36;97500.25;;;20.25;63.05
40285;BME280;25997;50.214;19.354;2023-07-13T04:48:38;97497.63;;;20.23;63.28
40285;BME280;25997;50.214;19.354;2023-07-13T04:51:41;97491.41;;;20.23;63.07
40285;BME280;25997;50.214;19.354;2023-07-13T04:54:43;97491.34;;;20.26;63.05
40285;BME280;25997;50.214;19.354;2023-07-13T04:57:47;97488.50;;;20.35;63.46
40285;BME280;25997;50.214;19.354;2023-07-13T05:00:50;97481.28;;;20.38;63.13
40285;BME280;25997;50.214;19.354;2023-07-13T05:03:52;97476.59;;;20.49;63.07
40285;BME280;25997;50.214;19.354;2023-07-13T05:06:57;97483.50;;;20.59;63.31
40285;BME280;25997;50.214;19.354;2023-07-13T05:09:59;97478.09;;;20.61;63.08
40285;BME280;25997;50.214;19.354;2023-07-13T05:13:03;97469.94;;;20.67;63.41
40285;BME280;25997;50.214;19.354;2023-07-13T05:16:06;97467.19;;;20.73;63.10
40285;BME280;25997;50.214;19.354;2023-07-13T05:19:09;97467.94;;;20.78;62.92
40285;BME280;25997;50.214;19.354;2023-07-13T05:22:11;97470.59;;;20.78;63.21
40285;BME280;25997;50.214;19.354;2023-07-13T05:25:14;97469.66;;;20.82;63.08
40285;BME280;25997;50.214;19.354;2023-07-13T05:28:18;97475.72;;;20.87;62.92
40285;BME280;25997;50.214;19.354;2023-07-13T05:31:20;97474.84;;;20.88;62.98
40285;BME280;25997;50.214;19.354;2023-07-13T05:34:23;97473.88;;;20.91;63.06
40285;BME280;25997;50.214;19.354;2023-07-13T05:37:25;97477.19;;;21.02;63.11
40285;BME280;25997;50.214;19.354;2023-07-13T05:40:28;97478.66;;;21.13;63.12
40285;BME280;25997;50.214;19.354;2023-07-13T05:43:32;97476.56;;;21.26;63.02
40285;BME280;25997;50.214;19.354;2023-07-13T05:46:34;97484.00;;;21.48;63.03
40285;BME280;25997;50.214;19.354;2023-07-13T05:49:37;97480.03;;;21.63;62.65
40285;BME280;25997;50.214;19.354;2023-07-13T05:52:39;97464.59;;;21.74;62.55
40285;BME280;25997;50.214;19.354;2023-07-13T05:55:42;97471.16;;;21.93;62.22
40285;BME280;25997;50.214;19.354;2023-07-13T05:58:47;97477.97;;;22.06;62.08
40285;BME280;25997;50.214;19.354;2023-07-13T06:01:50;97472.25;;;22.18;61.63
40285;BME280;25997;50.214;19.354;2023-07-13T06:04:53;97467.19;;;22.39;61.70
40285;BME280;25997;50.214;19.354;2023-07-13T06:07:56;97469.38;;;22.54;61.50
40285;BME280;25997;50.214;19.354;2023-07-13T06:11:03;97469.78;;;22.71;61.58
40285;BME280;25997;50.214;19.354;2023-07-13T06:14:07;97471.22;;;22.81;61.18
40285;BME280;25997;50.214;19.354;2023-07-13T06:17:10;97463.06;;;22.85;61.29
40285;BME280;25997;50.214;19.354;2023-07-13T06:20:12;97471.81;;;22.90;60.85
40285;BME280;25997;50.214;19.354;2023-07-13T06:23:14;97475.31;;;22.93;60.72
40285;BME280;25997;50.214;19.354;2023-07-13T06:26:18;97476.81;;;23.01;60.66
40285;BME280;25997;50.214;19.354;2023-07-13T06:29:22;97479.81;;;23.20;60.28
40285;BME280;25997;50.214;19.354;2023-07-13T06:32:24;97483.84;;;23.33;60.28
40285;BME280;25997;50.214;19.354;2023-07-13T06:35:27;97479.69;;;23.49;59.80
40285;BME280;25997;50.214;19.354;2023-07-13T06:38:29;97476.97;;;23.50;59.37
40285;BME280;25997;50.214;19.354;2023-07-13T06:41:32;97483.97;;;23.54;59.54
40285;BME280;25997;50.214;19.354;2023-07-13T06:44:36;97484.78;;;23.56;59.02
40285;BME280;25997;50.214;19.354;2023-07-13T06:47:38;97482.00;;;23.59;59.16
40285;BME280;25997;50.214;19.354;2023-07-13T06:50:41;97478.13;;;23.68;58.37
40285;BME280;25997;50.214;19.354;2023-07-13T06:53:44;97475.88;;;23.82;58.53
40285;BME280;25997;50.214;19.354;2023-07-13T06:56:46;97484.28;;;23.96;57.94
40285;BME280;25997;50.214;19.354;2023-07-13T06:59:50;97472.47;;;24.02;57.71
40285;BME280;25997;50.214;19.354;2023-07-13T07:02:53;97475.50;;;24.16;57.37
40285;BME280;25997;50.214;19.354;2023-07-13T07:06:00;97483.81;;;24.33;56.63
40285;BME280;25997;50.214;19.354;2023-07-13T07:09:03;97482.44;;;24.46;56.51
40285;BME280;25997;50.214;19.354;2023-07-13T07:12:07;97486.66;;;24.53;56.36
40285;BME280;25997;50.214;19.354;2023-07-13T07:15:11;97494.34;;;24.62;55.42
40285;BME280;25997;50.214;19.354;2023-07-13T07:18:14;97499.75;;;24.84;55.34
40285;BME280;25997;50.214;19.354;2023-07-13T07:21:17;97507.16;;;25.00;54.87
40285;BME280;25997;50.214;19.354;2023-07-13T07:24:21;97508.56;;;25.09;54.66
40285;BME280;25997;50.214;19.354;2023-07-13T07:27:24;97505.22;;;25.26;54.03
40285;BME280;25997;50.214;19.354;2023-07-13T07:30:28;97518.28;;;25.56;53.29
40285;BME280;25997;50.214;19.354;2023-07-13T07:33:30;97525.97;;;25.86;52.24
40285;BME280;25997;50.214;19.354;2023-07-13T07:36:33;97520.88;;;26.00;51.42
40285;BME280;25997;50.214;19.354;2023-07-13T07:39:35;97530.41;;;26.08;50.96
40285;BME280;25997;50.214;19.354;2023-07-13T07:42:38;97532.13;;;26.29;50.87
40285;BME280;25997;50.214;19.354;2023-07-13T07:45:44;97534.75;;;26.31;50.66
40285;BME280;25997;50.214;19.354;2023-07-13T07:48:47;97535.91;;;26.25;50.53
40285;BME280;25997;50.214;19.354;2023-07-13T07:51:49;97537.72;;;26.05;50.61
40285;BME280;25997;50.214;19.354;2023-07-13T07:54:52;97534.13;;;25.84;50.04
40285;BME280;25997;50.214;19.354;2023-07-13T07:57:55;97535.41;;;25.54;49.96
40285;BME280;25997;50.214;19.354;2023-07-13T08:01:06;97530.56;;;25.40;49.73
40285;BME280;25997;50.214;19.354;2023-07-13T08:04:08;97528.84;;;25.39;50.45
40285;BME280;25997;50.214;19.354;2023-07-13T08:07:11;97529.09;;;25.12;51.30
40285;BME280;25997;50.214;19.354;2023-07-13T08:10:13;97520.41;;;25.05;51.74
40285;BME280;25997;50.214;19.354;2023-07-13T08:13:16;97524.69;;;25.09;51.27
40285;BME280;25997;50.214;19.354;2023-07-13T08:16:20;97519.84;;;25.19;50.10
40285;BME280;25997;50.214;19.354;2023-07-13T08:19:24;97510.66;;;25.24;49.73
40285;BME280;25997;50.214;19.354;2023-07-13T08:22:29;97509.06;;;25.40;48.76
40285;BME280;25997;50.214;19.354;2023-07-13T08:25:32;97507.19;;;25.42;47.85
40285;BME280;25997;50.214;19.354;2023-07-13T08:28:35;97503.28;;;25.51;47.21
40285;BME280;25997;50.214;19.354;2023-07-13T08:31:40;97498.84;;;25.50;47.79
40285;BME280;25997;50.214;19.354;2023-07-13T08:34:47;97504.66;;;25.81;47.17
40285;BME280;25997;50.214;19.354;2023-07-13T08:37:50;97501.38;;;26.15;47.17
40285;BME280;25997;50.214;19.354;2023-07-13T08:40:54;97506.00;;;26.31;46.03
40285;BME280;25997;50.214;19.354;2023-07-13T08:43:59;97505.34;;;26.26;45.64
40285;BME280;25997;50.214;19.354;2023-07-13T08:47:04;97498.78;;;26.32;44.94
40285;BME280;25997;50.214;19.354;2023-07-13T08:50:12;97501.97;;;26.60;44.70
40285;BME280;25997;50.214;19.354;2023-07-13T08:53:16;97494.88;;;26.59;44.51
40285;BME280;25997;50.214;19.354;2023-07-13T08:56:21;97489.03;;;26.68;44.90
40285;BME280;25997;50.214;19.354;2023-07-13T08:59:27;97495.81;;;26.38;44.66
40285;BME280;25997;50.214;19.354;2023-07-13T09:02:40;97490.91;;;26.09;45.04
40285;BME280;25997;50.214;19.354;2023-07-13T09:05:48;97487.53;;;26.04;45.92
40285;BME280;25997;50.214;19.354;2023-07-13T09:08:57;97486.66;;;26.03;45.31
40285;BME280;25997;50.214;19.354;2023-07-13T09:12:09;97488.13;;;26.10;45.69
40285;BME280;25997;50.214;19.354;2023-07-13T09:15:22;97491.50;;;26.34;45.31
40285;BME280;25997;50.214;19.354;2023-07-13T09:18:30;97494.25;;;26.53;45.13
40285;BME280;25997;50.214;19.354;2023-07-13T09:21:38;97492.09;;;26.61;44.99
40285;BME280;25997;50.214;19.354;2023-07-13T09:24:51;97490.50;;;26.57;44.33
40285;BME280;25997;50.214;19.354;2023-07-13T09:27:57;97491.38;;;26.57;44.86
40285;BME280;25997;50.214;19.354;2023-07-13T09:31:04;97493.06;;;26.60;44.47
40285;BME280;25997;50.214;19.354;2023-07-13T09:34:11;97493.50;;;26.49;44.78
40285;BME280;25997;50.214;19.354;2023-07-13T09:37:14;97501.88;;;26.43;44.83
40285;BME280;25997;50.214;19.354;2023-07-13T09:40:21;97496.56;;;26.41;44.86
40285;BME280;25997;50.214;19.354;2023-07-13T09:43:27;97498.78;;;26.32;44.92
40285;BME280;25997;50.214;19.354;2023-07-13T09:46:30;97501.25;;;26.18;44.81
40285;BME280;25997;50.214;19.354;2023-07-13T09:49:35;97497.09;;;26.11;44.97
40285;BME280;25997;50.214;19.354;2023-07-13T09:52:43;97497.59;;;25.99;44.54
40285;BME280;25997;50.214;19.354;2023-07-13T09:55:48;97493.50;;;25.90;45.05
40285;BME280;25997;50.214;19.354;2023-07-13T09:58:51;97493.78;;;25.84;45.07
40285;BME280;25997;50.214;19.354;2023-07-13T10:01:54;97495.66;;;25.82;45.39
40285;BME280;25997;50.214;19.354;2023-07-13T10:04:59;97498.66;;;25.74;45.27
40285;BME280;25997;50.214;19.354;2023-07-13T10:08:02;97502.34;;;25.52;45.73
40285;BME280;25997;50.214;19.354;2023-07-13T10:11:12;97500.03;;;25.21;46.16
40285;BME280;25997;50.214;19.354;2023-07-13T10:14:21;97505.41;;;24.99;46.65
40285;BME280;25997;50.214;19.354;2023-07-13T10:17:29;97492.75;;;24.57;47.24
40285;BME280;25997;50.214;19.354;2023-07-13T10:20:34;97504.38;;;23.85;49.58
40285;BME280;25997;50.214;19.354;2023-07-13T10:23:36;97521.78;;;22.62;51.27
40285;BME280;25997;50.214;19.354;2023-07-13T10:26:45;97534.31;;;21.65;53.46
40285;BME280;25997;50.214;19.354;2023-07-13T10:29:53;97548.34;;;21.03;55.87
40285;BME280;25997;50.214;19.354;2023-07-13T10:32:58;97574.97;;;20.23;57.08
40285;BME280;25997;50.214;19.354;2023-07-13T10:36:13;97596.34;;;19.71;61.21
40285;BME280;25997;50.214;19.354;2023-07-13T10:39:20;97621.53;;;18.91;59.55
40285;BME280;25997;50.214;19.354;2023-07-13T10:42:29;97631.72;;;18.57;61.23
40285;BME280;25997;50.214;19.354;2023-07-13T10:45:35;97645.28;;;18.35;61.94
40285;BME280;25997;50.214;19.354;2023-07-13T10:48:39;97653.44;;;18.20;61.18
40285;BME280;25997;50.214;19.354;2023-07-13T10:51:44;97651.06;;;17.88;62.75
40285;BME280;25997;50.214;19.354;2023-07-13T10:54:48;97676.00;;;17.70;61.56
40285;BME280;25997;50.214;19.354;2023-07-13T10:57:51;97684.09;;;17.52;62.08
40285;BME280;25997;50.214;19.354;2023-07-13T11:01:03;97680.72;;;17.31;62.55
40285;BME280;25997;50.214;19.354;2023-07-13T11:04:12;97682.47;;;17.32;62.57
40285;BME280;25997;50.214;19.354;2023-07-13T11:07:21;97671.03;;;17.20;63.57
40285;BME280;25997;50.214;19.354;2023-07-13T11:10:47;97682.53;;;17.16;63.15
40285;BME280;25997;50.214;19.354;2023-07-13T11:13:58;97666.72;;;16.98;62.33
40285;BME280;25997;50.214;19.354;2023-07-13T11:17:35;97661.47;;;16.89;63.46
40285;BME280;25997;50.214;19.354;2023-07-13T11:20:39;97665.88;;;16.90;61.84
40285;BME280;25997;50.214;19.354;2023-07-13T11:23:45;97663.25;;;16.87;61.58
40285;BME280;25997;50.214;19.354;2023-07-13T11:26:56;97657.94;;;16.86;61.77
40285;BME280;25997;50.214;19.354;2023-07-13T11:33:55;97658.75;;;16.98;61.94
40285;BME280;25997;50.214;19.354;2023-07-13T11:37:02;97662.28;;;17.00;61.40
40285;BME280;25997;50.214;19.354;2023-07-13T11:40:13;97666.66;;;17.07;62.02
40285;BME280;25997;50.214;19.354;2023-07-13T11:43:20;97669.31;;;17.10;61.64
40285;BME280;25997;50.214;19.354;2023-07-13T11:46:28;97676.34;;;17.17;61.70
40285;BME280;25997;50.214;19.354;2023-07-13T11:49:31;97678.06;;;17.31;61.75
40285;BME280;25997;50.214;19.354;2023-07-13T11:52:37;97677.97;;;17.43;61.69
40285;BME280;25997;50.214;19.354;2023-07-13T11:55:42;97675.25;;;17.52;61.82
40285;BME280;25997;50.214;19.354;2023-07-13T11:58:48;97678.69;;;17.66;61.91
40285;BME280;25997;50.214;19.354;2023-07-13T12:01:54;97669.75;;;17.77;61.69
40285;BME280;25997;50.214;19.354;2023-07-13T12:04:59;97667.91;;;17.84;61.69
40285;BME280;25997;50.214;19.354;2023-07-13T12:08:09;97662.53;;;17.95;62.00
40285;BME280;25997;50.214;19.354;2023-07-13T12:11:16;97676.59;;;18.09;61.75
40285;BME280;25997;50.214;19.354;2023-07-13T12:14:19;97680.88;;;18.20;62.37
40285;BME280;25997;50.214;19.354;2023-07-13T12:17:26;97680.63;;;18.44;62.06
40285;BME280;25997;50.214;19.354;2023-07-13T12:20:35;97678.66;;;18.61;61.83
40285;BME280;25997;50.214;19.354;2023-07-13T12:23:39;97677.56;;;18.81;61.71
40285;BME280;25997;50.214;19.354;2023-07-13T12:26:50;97673.94;;;18.88;61.58
40285;BME280;25997;50.214;19.354;2023-07-13T12:30:24;97666.63;;;19.03;62.04
40285;BME280;25997;50.214;19.354;2023-07-13T12:33:28;97666.53;;;19.09;61.56
40285;BME280;25997;50.214;19.354;2023-07-13T12:36:33;97657.69;;;19.09;61.08
40285;BME280;25997;50.214;19.354;2023-07-13T12:39:45;97656.78;;;19.07;61.68
40285;BME280;25997;50.214;19.354;2023-07-13T12:42:51;97665.44;;;19.24;61.81
40285;BME280;25997;50.214;19.354;2023-07-13T12:45:55;97666.09;;;19.41;61.84
40285;BME280;25997;50.214;19.354;2023-07-13T12:48:58;97664.03;;;19.60;61.74
40285;BME280;25997;50.214;19.354;2023-07-13T12:52:03;97667.97;;;19.89;61.71
40285;BME280;25997;50.214;19.354;2023-07-13T12:55:11;97665.63;;;20.23;61.39
40285;BME280;25997;50.214;19.354;2023-07-13T12:58:26;97667.91;;;20.44;60.55
40285;BME280;25997;50.214;19.354;2023-07-13T13:01:32;97668.63;;;20.52;60.55
40285;BME280;25997;50.214;19.354;2023-07-13T13:04:39;97668.38;;;20.64;60.49
40285;BME280;25997;50.214;19.354;2023-07-13T13:07:43;97675.31;;;20.74;61.05
40285;BME280;25997;50.214;19.354;2023-07-13T13:10:47;97688.63;;;20.77;59.87
40285;BME280;25997;50.214;19.354;2023-07-13T13:13:51;97688.34;;;20.90;60.62
40285;BME280;25997;50.214;19.354;2023-07-13T13:16:53;97689.03;;;20.99;59.93
40285;BME280;25997;50.214;19.354;2023-07-13T13:19:56;97695.69;;;21.21;59.61
40285;BME280;25997;50.214;19.354;2023-07-13T13:22:58;97697.56;;;21.16;59.04
40285;BME280;25997;50.214;19.354;2023-07-13T13:26:02;97710.59;;;20.90;59.37
40285;BME280;25997;50.214;19.354;2023-07-13T13:29:11;97719.03;;;21.12;59.91
40285;BME280;25997;50.214;19.354;2023-07-13T13:32:15;97722.13;;;21.35;59.38
40285;BME280;25997;50.214;19.354;2023-07-13T13:35:19;97720.47;;;21.28;58.50
40285;BME280;25997;50.214;19.354;2023-07-13T13:38:25;97728.03;;;21.08;57.97
40285;BME280;25997;50.214;19.354;2023-07-13T13:41:28;97718.38;;;21.01;59.43
40285;BME280;25997;50.214;19.354;2023-07-13T13:44:31;97723.78;;;21.40;59.06
40285;BME280;25997;50.214;19.354;2023-07-13T13:47:34;97723.72;;;22.18;57.09
40285;BME280;25997;50.214;19.354;2023-07-13T13:50:37;97740.69;;;22.17;55.22
40285;BME280;25997;50.214;19.354;2023-07-13T13:53:40;97724.66;;;22.16;56.01
40285;BME280;25997;50.214;19.354;2023-07-13T13:56:43;97721.28;;;21.71;55.27
40285;BME280;25997;50.214;19.354;2023-07-13T13:59:47;97723.03;;;22.10;56.21
40285;BME280;25997;50.214;19.354;2023-07-13T14:02:49;97733.06;;;22.70;55.54
40285;BME280;25997;50.214;19.354;2023-07-13T14:05:53;97730.97;;;22.47;53.88
40285;BME280;25997;50.214;19.354;2023-07-13T14:08:58;97733.84;;;22.06;54.84
40285;BME280;25997;50.214;19.354;2023-07-13T14:12:01;97739.56;;;22.26;54.13
40285;BME280;25997;50.214;19.354;2023-07-13T14:15:08;97733.16;;;22.32;53.81
40285;BME280;25997;50.214;19.354;2023-07-13T14:18:17;97727.81;;;22.33;53.99
40285;BME280;25997;50.214;19.354;2023-07-13T14:21:21;97737.41;;;22.40;53.88
40285;BME280;25997;50.214;19.354;2023-07-13T14:24:24;97742.66;;;22.78;53.91
40285;BME280;25997;50.214;19.354;2023-07-13T14:27:26;97750.03;;;22.70;53.34
40285;BME280;25997;50.214;19.354;2023-07-13T14:30:30;97735.75;;;22.01;53.49
40285;BME280;25997;50.214;19.354;2023-07-13T14:33:34;97731.47;;;21.54;53.93
40285;BME280;25997;50.214;19.354;2023-07-13T14:36:39;97734.34;;;21.45;54.58
40285;BME280;25997;50.214;19.354;2023-07-13T14:39:44;97741.91;;;21.65;54.69
40285;BME280;25997;50.214;19.354;2023-07-13T14:42:52;97734.06;;;21.97;54.77
40285;BME280;25997;50.214;19.354;2023-07-13T14:45:56;97730.69;;;21.89;53.64
40285;BME280;25997;50.214;19.354;2023-07-13T14:49:05;97720.19;;;22.16;53.11
40285;BME280;25997;50.214;19.354;2023-07-13T14:52:12;97712.00;;;22.23;53.10
40285;BME280;25997;50.214;19.354;2023-07-13T14:55:16;97724.47;;;22.24;52.73
40285;BME280;25997;50.214;19.354;2023-07-13T14:58:19;97726.09;;;22.29;52.84
40285;BME280;25997;50.214;19.354;2023-07-13T15:01:23;97738.78;;;23.21;52.90
40285;BME280;25997;50.214;19.354;2023-07-13T15:04:26;97744.69;;;24.96;51.12
40285;BME280;25997;50.214;19.354;2023-07-13T15:07:29;97769.06;;;26.31;49.34
40285;BME280;25997;50.214;19.354;2023-07-13T15:10:32;97764.31;;;26.99;46.97
40285;BME280;25997;50.214;19.354;2023-07-13T15:13:37;97751.94;;;26.94;46.37
40285;BME280;25997;50.214;19.354;2023-07-13T15:16:41;97757.31;;;27.16;46.36
40285;BME280;25997;50.214;19.354;2023-07-13T15:19:44;97747.13;;;27.41;45.63
40285;BME280;25997;50.214;19.354;2023-07-13T15:22:47;97746.31;;;27.20;45.95
40285;BME280;25997;50.214;19.354;2023-07-13T15:25:50;97748.22;;;26.78;46.30
40285;BME280;25997;50.214;19.354;2023-07-13T15:28:53;97747.59;;;26.50;46.71
40285;BME280;25997;50.214;19.354;2023-07-13T15:31:57;97740.78;;;26.41;46.50
40285;BME280;25997;50.214;19.354;2023-07-13T15:34:59;97741.25;;;26.09;46.62
40285;BME280;25997;50.214;19.354;2023-07-13T15:38:12;97743.97;;;25.39;45.46
40285;BME280;25997;50.214;19.354;2023-07-13T15:41:19;97749.13;;;24.71;46.85
40285;BME280;25997;50.214;19.354;2023-07-13T15:44:26;97749.13;;;24.19;47.44
40285;BME280;25997;50.214;19.354;2023-07-13T15:47:31;97742.47;;;23.77;48.07
40285;BME280;25997;50.214;19.354;2023-07-13T15:50:42;97743.06;;;23.57;48.54
40285;BME280;25997;50.214;19.354;2023-07-13T15:53:46;97741.41;;;23.53;49.18
40285;BME280;25997;50.214;19.354;2023-07-13T15:56:52;97748.66;;;23.79;48.62
40285;BME280;25997;50.214;19.354;2023-07-13T15:59:56;97742.31;;;24.09;48.04
40285;BME280;25997;50.214;19.354;2023-07-13T16:03:02;97746.88;;;25.10;47.55
40285;BME280;25997;50.214;19.354;2023-07-13T16:06:14;97761.44;;;25.97;45.89
40285;BME280;25997;50.214;19.354;2023-07-13T16:09:20;97762.09;;;26.04;45.28